sensor_id;sensor_type;location;lat;lon;timestamp;P1;durP1;ratioP1;P2;durP2;ratioP2
47796;SDS011;33558;50.922;14.068;2022-08-01T00:02:15;7.90;;;4.50;;
47796;SDS011;33558;50.922;14.068;2022-08-01T00:04:41;10.02;;;5.57;;
47796;SDS011;33558;50.922;14.068;2022-08-01T00:07:08;7.22;;;5.30;;
47796;SDS011;33558;50.922;14.068;2022-08-01T00:09:35;8.85;;;4.63;;
47796;SDS011;33558;50.922;14.068;2022-08-01T00:12:01;6.18;;;4.00;;
47796;SDS011;33558;50.922;14.068;2022-08-01T00:14:29;4.53;;;4.00;;
47796;SDS011;33558;50.922;14.068;2022-08-01T00:16:56;5.85;;;4.20;;
47796;SDS011;33558;50.922;14.068;2022-08-01T00:19:25;5.35;;;4.78;;
47796;SDS011;33558;50.922;14.068;2022-08-01T00:21:51;11.27;;;4.47;;
47796;SDS011;33558;50.922;14.068;2022-08-01T00:24:18;9.20;;;3.88;;
47796;SDS011;33558;50.922;14.068;2022-08-01T00:26:44;5.90;;;4.47;;
47796;SDS011;33558;50.922;14.068;2022-08-01T00:29:11;4.63;;;4.00;;
47796;SDS011;33558;50.922;14.068;2022-08-01T00:31:37;5.95;;;4.47;;
47796;SDS011;33558;50.922;14.068;2022-08-01T00:34:04;8.18;;;4.50;;
47796;SDS011;33558;50.922;14.068;2022-08-01T00:36:32;6.57;;;4.80;;
47796;SDS011;33558;50.922;14.068;2022-08-01T00:38:59;5.57;;;5.00;;
47796;SDS011;33558;50.922;14.068;2022-08-01T00:41:25;7.28;;;5.30;;
47796;SDS011;33558;50.922;14.068;2022-08-01T00:43:52;6.45;;;4.45;;
47796;SDS011;33558;50.922;14.068;2022-08-01T00:46:19;4.90;;;4.13;;
47796;SDS011;33558;50.922;14.068;2022-08-01T00:48:46;6.85;;;4.43;;
47796;SDS011;33558;50.922;14.068;2022-08-01T00:51:12;5.55;;;3.78;;
47796;SDS011;33558;50.922;14.068;2022-08-01T00:53:40;4.30;;;3.90;;
47796;SDS011;33558;50.922;14.068;2022-08-01T00:56:07;7.30;;;4.72;;
47796;SDS011;33558;50.922;14.068;2022-08-01T00:58:34;6.68;;;5.75;;
47796;SDS011;33558;50.922;14.068;2022-08-01T01:01:00;6.35;;;4.90;;
47796;SDS011;33558;50.922;14.068;2022-08-01T01:03:27;6.35;;;5.38;;
47796;SDS011;33558;50.922;14.068;2022-08-01T01:05:56;9.25;;;5.60;;
47796;SDS011;33558;50.922;14.068;2022-08-01T01:08:30;8.82;;;5.95;;
47796;SDS011;33558;50.922;14.068;2022-08-01T01:11:03;6.15;;;5.55;;
47796;SDS011;33558;50.922;14.068;2022-08-01T01:13:32;7.78;;;4.57;;
47796;SDS011;33558;50.922;14.068;2022-08-01T01:16:04;9.18;;;5.90;;
47796;SDS011;33558;50.922;14.068;2022-08-01T01:18:33;8.18;;;5.78;;
47796;SDS011;33558;50.922;14.068;2022-08-01T01:21:03;7.30;;;5.88;;
47796;SDS011;33558;50.922;14.068;2022-08-01T01:23:38;7.97;;;6.22;;
47796;SDS011;33558;50.922;14.068;2022-08-01T01:26:21;10.95;;;8.48;;
47796;SDS011;33558;50.922;14.068;2022-08-01T01:29:07;12.85;;;9.15;;
47796;SDS011;33558;50.922;14.068;2022-08-01T01:31:36;15.85;;;10.68;;
47796;SDS011;33558;50.922;14.068;2022-08-01T01:34:06;14.55;;;11.18;;
47796;SDS011;33558;50.922;14.068;2022-08-01T01:36:34;21.17;;;12.50;;
47796;SDS011;33558;50.922;14.068;2022-08-01T01:39:01;15.80;;;11.68;;
47796;SDS011;33558;50.922;14.068;2022-08-01T01:41:28;16.08;;;12.15;;
47796;SDS011;33558;50.922;14.068;2022-08-01T01:43:56;22.75;;;13.02;;
47796;SDS011;33558;50.922;14.068;2022-08-01T01:46:25;18.55;;;12.85;;
47796;SDS011;33558;50.922;14.068;2022-08-01T01:48:53;18.20;;;12.20;;
47796;SDS011;33558;50.922;14.068;2022-08-01T01:51:20;16.65;;;11.10;;
47796;SDS011;33558;50.922;14.068;2022-08-01T01:53:48;17.80;;;12.25;;
47796;SDS011;33558;50.922;14.068;2022-08-01T01:56:16;16.52;;;10.80;;
47796;SDS011;33558;50.922;14.068;2022-08-01T01:58:43;14.02;;;10.73;;
47796;SDS011;33558;50.922;14.068;2022-08-01T02:01:10;12.43;;;10.63;;
47796;SDS011;33558;50.922;14.068;2022-08-01T02:03:38;12.45;;;10.15;;
47796;SDS011;33558;50.922;14.068;2022-08-01T02:06:06;15.40;;;11.02;;
47796;SDS011;33558;50.922;14.068;2022-08-01T02:08:33;12.43;;;10.05;;
47796;SDS011;33558;50.922;14.068;2022-08-01T02:11:00;15.43;;;10.48;;
47796;SDS011;33558;50.922;14.068;2022-08-01T02:13:46;13.23;;;10.95;;
47796;SDS011;33558;50.922;14.068;2022-08-01T02:16:17;13.80;;;10.40;;
47796;SDS011;33558;50.922;14.068;2022-08-01T02:18:46;12.07;;;9.43;;
47796;SDS011;33558;50.922;14.068;2022-08-01T02:21:14;11.82;;;9.65;;
47796;SDS011;33558;50.922;14.068;2022-08-01T02:23:43;13.80;;;10.68;;
47796;SDS011;33558;50.922;14.068;2022-08-01T02:26:11;19.58;;;11.60;;
47796;SDS011;33558;50.922;14.068;2022-08-01T02:28:41;14.65;;;11.60;;
47796;SDS011;33558;50.922;14.068;2022-08-01T02:31:13;15.38;;;11.45;;
47796;SDS011;33558;50.922;14.068;2022-08-01T02:33:41;16.63;;;10.88;;
47796;SDS011;33558;50.922;14.068;2022-08-01T02:36:11;16.92;;;11.07;;
47796;SDS011;33558;50.922;14.068;2022-08-01T02:38:40;19.85;;;12.05;;
47796;SDS011;33558;50.922;14.068;2022-08-01T02:41:08;17.52;;;12.60;;
47796;SDS011;33558;50.922;14.068;2022-08-01T02:43:38;18.05;;;12.00;;
47796;SDS011;33558;50.922;14.068;2022-08-01T02:46:09;17.20;;;12.25;;
47796;SDS011;33558;50.922;14.068;2022-08-01T02:48:42;16.60;;;12.10;;
47796;SDS011;33558;50.922;14.068;2022-08-01T02:51:11;15.63;;;12.82;;
47796;SDS011;33558;50.922;14.068;2022-08-01T02:53:39;15.55;;;11.70;;
47796;SDS011;33558;50.922;14.068;2022-08-01T02:56:07;16.08;;;12.55;;
47796;SDS011;33558;50.922;14.068;2022-08-01T02:58:34;14.43;;;11.25;;
47796;SDS011;33558;50.922;14.068;2022-08-01T03:01:02;16.23;;;11.50;;
47796;SDS011;33558;50.922;14.068;2022-08-01T03:03:30;16.58;;;11.65;;
47796;SDS011;33558;50.922;14.068;2022-08-01T03:05:57;17.23;;;11.38;;
47796;SDS011;33558;50.922;14.068;2022-08-01T03:08:25;15.40;;;11.05;;
47796;SDS011;33558;50.922;14.068;2022-08-01T03:10:53;17.90;;;11.73;;
47796;SDS011;33558;50.922;14.068;2022-08-01T03:13:21;14.70;;;10.88;;
47796;SDS011;33558;50.922;14.068;2022-08-01T03:15:48;15.93;;;11.10;;
47796;SDS011;33558;50.922;14.068;2022-08-01T03:18:15;16.55;;;11.05;;
47796;SDS011;33558;50.922;14.068;2022-08-01T03:20:42;16.13;;;11.60;;
47796;SDS011;33558;50.922;14.068;2022-08-01T03:23:10;15.23;;;10.30;;
47796;SDS011;33558;50.922;14.068;2022-08-01T03:25:39;15.32;;;10.82;;
47796;SDS011;33558;50.922;14.068;2022-08-01T03:28:07;12.23;;;10.30;;
47796;SDS011;33558;50.922;14.068;2022-08-01T03:30:35;13.40;;;10.38;;
47796;SDS011;33558;50.922;14.068;2022-08-01T03:33:03;15.77;;;10.95;;
47796;SDS011;33558;50.922;14.068;2022-08-01T03:35:30;14.05;;;11.63;;
47796;SDS011;33558;50.922;14.068;2022-08-01T03:38:00;16.65;;;12.45;;
47796;SDS011;33558;50.922;14.068;2022-08-01T03:40:28;16.48;;;12.23;;
47796;SDS011;33558;50.922;14.068;2022-08-01T03:42:59;14.32;;;10.35;;
47796;SDS011;33558;50.922;14.068;2022-08-01T03:45:30;18.35;;;10.90;;
47796;SDS011;33558;50.922;14.068;2022-08-01T03:47:59;13.40;;;9.38;;
47796;SDS011;33558;50.922;14.068;2022-08-01T03:50:27;14.98;;;11.07;;
47796;SDS011;33558;50.922;14.068;2022-08-01T03:52:57;12.30;;;9.55;;
47796;SDS011;33558;50.922;14.068;2022-08-01T03:55:24;11.50;;;9.45;;
47796;SDS011;33558;50.922;14.068;2022-08-01T03:57:50;12.35;;;9.50;;
47796;SDS011;33558;50.922;14.068;2022-08-01T04:00:18;11.45;;;9.85;;
47796;SDS011;33558;50.922;14.068;2022-08-01T04:02:45;15.98;;;11.07;;
47796;SDS011;33558;50.922;14.068;2022-08-01T04:05:13;12.40;;;10.77;;
47796;SDS011;33558;50.922;14.068;2022-08-01T04:07:40;12.57;;;11.07;;
47796;SDS011;33558;50.922;14.068;2022-08-01T04:10:08;16.02;;;12.68;;
47796;SDS011;33558;50.922;14.068;2022-08-01T04:12:35;21.90;;;14.88;;
47796;SDS011;33558;50.922;14.068;2022-08-01T04:15:02;16.20;;;12.15;;
47796;SDS011;33558;50.922;14.068;2022-08-01T04:17:31;15.77;;;12.20;;
47796;SDS011;33558;50.922;14.068;2022-08-01T04:19:57;14.75;;;13.18;;
47796;SDS011;33558;50.922;14.068;2022-08-01T04:22:24;15.50;;;12.98;;
47796;SDS011;33558;50.922;14.068;2022-08-01T04:24:52;17.52;;;12.55;;
47796;SDS011;33558;50.922;14.068;2022-08-01T04:27:22;17.27;;;12.45;;
47796;SDS011;33558;50.922;14.068;2022-08-01T04:29:50;17.77;;;12.38;;
47796;SDS011;33558;50.922;14.068;2022-08-01T04:32:18;17.58;;;12.50;;
47796;SDS011;33558;50.922;14.068;2022-08-01T04:34:47;15.90;;;12.32;;
47796;SDS011;33558;50.922;14.068;2022-08-01T04:37:15;20.77;;;12.18;;
47796;SDS011;33558;50.922;14.068;2022-08-01T04:39:43;17.20;;;12.65;;
47796;SDS011;33558;50.922;14.068;2022-08-01T04:42:10;16.13;;;11.50;;
47796;SDS011;33558;50.922;14.068;2022-08-01T04:44:38;14.48;;;11.45;;
47796;SDS011;33558;50.922;14.068;2022-08-01T04:47:05;18.02;;;12.93;;
47796;SDS011;33558;50.922;14.068;2022-08-01T04:49:32;17.20;;;12.73;;
47796;SDS011;33558;50.922;14.068;2022-08-01T04:52:01;19.15;;;13.05;;
47796;SDS011;33558;50.922;14.068;2022-08-01T04:54:28;18.67;;;12.15;;
47796;SDS011;33558;50.922;14.068;2022-08-01T04:56:58;21.60;;;13.95;;
47796;SDS011;33558;50.922;14.068;2022-08-01T04:59:26;19.60;;;14.15;;
47796;SDS011;33558;50.922;14.068;2022-08-01T05:02:08;18.33;;;13.45;;
47796;SDS011;33558;50.922;14.068;2022-08-01T05:04:36;16.80;;;14.00;;
47796;SDS011;33558;50.922;14.068;2022-08-01T05:07:05;23.67;;;14.48;;
47796;SDS011;33558;50.922;14.068;2022-08-01T05:09:32;17.50;;;13.07;;
47796;SDS011;33558;50.922;14.068;2022-08-01T05:11:59;19.70;;;13.70;;
47796;SDS011;33558;50.922;14.068;2022-08-01T05:14:26;21.85;;;13.13;;
47796;SDS011;33558;50.922;14.068;2022-08-01T05:16:53;20.52;;;14.77;;
47796;SDS011;33558;50.922;14.068;2022-08-01T05:19:20;20.98;;;14.85;;
47796;SDS011;33558;50.922;14.068;2022-08-01T05:21:47;20.02;;;15.00;;
47796;SDS011;33558;50.922;14.068;2022-08-01T05:24:15;17.88;;;14.13;;
47796;SDS011;33558;50.922;14.068;2022-08-01T05:26:41;23.75;;;15.23;;
47796;SDS011;33558;50.922;14.068;2022-08-01T05:29:08;19.38;;;14.93;;
47796;SDS011;33558;50.922;14.068;2022-08-01T05:31:35;17.38;;;13.13;;
47796;SDS011;33558;50.922;14.068;2022-08-01T05:34:02;20.42;;;14.60;;
47796;SDS011;33558;50.922;14.068;2022-08-01T05:36:29;16.35;;;12.93;;
47796;SDS011;33558;50.922;14.068;2022-08-01T05:38:56;22.55;;;14.85;;
47796;SDS011;33558;50.922;14.068;2022-08-01T05:41:24;19.02;;;14.02;;
47796;SDS011;33558;50.922;14.068;2022-08-01T05:43:51;18.40;;;12.77;;
47796;SDS011;33558;50.922;14.068;2022-08-01T05:46:18;18.10;;;13.13;;
47796;SDS011;33558;50.922;14.068;2022-08-01T05:48:44;19.42;;;13.52;;
47796;SDS011;33558;50.922;14.068;2022-08-01T05:51:11;16.95;;;12.52;;
47796;SDS011;33558;50.922;14.068;2022-08-01T05:53:37;19.00;;;14.85;;
47796;SDS011;33558;50.922;14.068;2022-08-01T05:56:04;28.05;;;17.67;;
47796;SDS011;33558;50.922;14.068;2022-08-01T05:58:34;23.05;;;16.25;;
47796;SDS011;33558;50.922;14.068;2022-08-01T06:01:01;16.90;;;11.63;;
47796;SDS011;33558;50.922;14.068;2022-08-01T06:03:27;10.65;;;8.68;;
47796;SDS011;33558;50.922;14.068;2022-08-01T06:05:56;5.00;;;4.22;;
47796;SDS011;33558;50.922;14.068;2022-08-01T06:08:23;3.78;;;3.33;;
47796;SDS011;33558;50.922;14.068;2022-08-01T06:10:49;5.18;;;3.28;;
47796;SDS011;33558;50.922;14.068;2022-08-01T06:13:16;2.83;;;2.53;;
47796;SDS011;33558;50.922;14.068;2022-08-01T06:15:45;3.65;;;2.50;;
47796;SDS011;33558;50.922;14.068;2022-08-01T06:18:12;2.50;;;2.30;;
47796;SDS011;33558;50.922;14.068;2022-08-01T06:20:38;4.00;;;2.00;;
47796;SDS011;33558;50.922;14.068;2022-08-01T06:23:05;4.13;;;2.08;;
47796;SDS011;33558;50.922;14.068;2022-08-01T06:25:32;4.53;;;2.58;;
47796;SDS011;33558;50.922;14.068;2022-08-01T06:27:59;4.78;;;2.00;;
47796;SDS011;33558;50.922;14.068;2022-08-01T06:30:25;3.38;;;2.30;;
47796;SDS011;33558;50.922;14.068;2022-08-01T06:32:54;3.65;;;2.50;;
47796;SDS011;33558;50.922;14.068;2022-08-01T06:35:23;2.60;;;2.08;;
47796;SDS011;33558;50.922;14.068;2022-08-01T06:37:50;2.75;;;2.05;;
47796;SDS011;33558;50.922;14.068;2022-08-01T06:40:16;2.63;;;2.20;;
47796;SDS011;33558;50.922;14.068;2022-08-01T06:42:44;2.42;;;2.03;;
47796;SDS011;33558;50.922;14.068;2022-08-01T06:45:11;3.55;;;2.70;;
47796;SDS011;33558;50.922;14.068;2022-08-01T06:47:39;3.80;;;2.30;;
47796;SDS011;33558;50.922;14.068;2022-08-01T06:50:08;2.88;;;2.38;;
47796;SDS011;33558;50.922;14.068;2022-08-01T06:52:36;3.47;;;2.53;;
47796;SDS011;33558;50.922;14.068;2022-08-01T06:55:03;2.60;;;2.25;;
47796;SDS011;33558;50.922;14.068;2022-08-01T06:57:30;4.43;;;2.13;;
47796;SDS011;33558;50.922;14.068;2022-08-01T06:59:57;2.83;;;2.42;;
47796;SDS011;33558;50.922;14.068;2022-08-01T07:02:27;6.80;;;2.60;;
47796;SDS011;33558;50.922;14.068;2022-08-01T07:04:54;2.65;;;2.25;;
47796;SDS011;33558;50.922;14.068;2022-08-01T07:07:24;3.05;;;2.22;;
47796;SDS011;33558;50.922;14.068;2022-08-01T07:09:50;3.28;;;2.10;;
47796;SDS011;33558;50.922;14.068;2022-08-01T07:12:17;4.22;;;2.40;;
47796;SDS011;33558;50.922;14.068;2022-08-01T07:14:43;2.65;;;2.30;;
47796;SDS011;33558;50.922;14.068;2022-08-01T07:17:11;4.05;;;2.60;;
47796;SDS011;33558;50.922;14.068;2022-08-01T07:19:38;3.85;;;2.30;;
47796;SDS011;33558;50.922;14.068;2022-08-01T07:22:04;2.97;;;2.28;;
47796;SDS011;33558;50.922;14.068;2022-08-01T07:24:32;3.08;;;2.40;;
47796;SDS011;33558;50.922;14.068;2022-08-01T07:26:59;3.80;;;3.03;;
47796;SDS011;33558;50.922;14.068;2022-08-01T07:29:26;3.53;;;2.45;;
47796;SDS011;33558;50.922;14.068;2022-08-01T07:39:27;4.40;;;3.00;;
47796;SDS011;33558;50.922;14.068;2022-08-01T07:41:55;5.28;;;3.10;;
47796;SDS011;33558;50.922;14.068;2022-08-01T07:44:22;6.07;;;3.22;;
47796;SDS011;33558;50.922;14.068;2022-08-01T07:46:49;4.10;;;3.08;;
47796;SDS011;33558;50.922;14.068;2022-08-01T07:49:16;4.05;;;3.40;;
47796;SDS011;33558;50.922;14.068;2022-08-01T07:51:42;5.15;;;3.45;;
47796;SDS011;33558;50.922;14.068;2022-08-01T07:54:09;5.07;;;3.47;;
47796;SDS011;33558;50.922;14.068;2022-08-01T07:56:35;4.28;;;3.88;;
47796;SDS011;33558;50.922;14.068;2022-08-01T07:59:03;5.85;;;4.30;;
47796;SDS011;33558;50.922;14.068;2022-08-01T08:01:30;4.55;;;4.10;;
47796;SDS011;33558;50.922;14.068;2022-08-01T08:03:57;5.25;;;4.75;;
47796;SDS011;33558;50.922;14.068;2022-08-01T08:06:23;6.70;;;6.05;;
47796;SDS011;33558;50.922;14.068;2022-08-01T08:08:50;7.55;;;6.68;;
47796;SDS011;33558;50.922;14.068;2022-08-01T08:11:18;6.05;;;5.55;;
47796;SDS011;33558;50.922;14.068;2022-08-01T08:13:45;6.07;;;5.57;;
47796;SDS011;33558;50.922;14.068;2022-08-01T08:16:13;6.93;;;6.30;;
47796;SDS011;33558;50.922;14.068;2022-08-01T08:18:40;5.50;;;4.75;;
47796;SDS011;33558;50.922;14.068;2022-08-01T08:21:06;6.00;;;5.40;;
47796;SDS011;33558;50.922;14.068;2022-08-01T08:23:33;6.72;;;6.13;;
47796;SDS011;33558;50.922;14.068;2022-08-01T08:26:17;7.15;;;6.55;;
47796;SDS011;33558;50.922;14.068;2022-08-01T08:28:44;6.57;;;5.97;;
47796;SDS011;33558;50.922;14.068;2022-08-01T08:31:12;6.95;;;6.22;;
47796;SDS011;33558;50.922;14.068;2022-08-01T08:33:39;6.60;;;6.03;;
47796;SDS011;33558;50.922;14.068;2022-08-01T08:36:06;7.10;;;6.40;;
47796;SDS011;33558;50.922;14.068;2022-08-01T08:38:33;6.82;;;6.22;;
47796;SDS011;33558;50.922;14.068;2022-08-01T08:41:00;7.88;;;6.18;;
47796;SDS011;33558;50.922;14.068;2022-08-01T08:43:26;5.45;;;4.85;;
47796;SDS011;33558;50.922;14.068;2022-08-01T08:45:53;3.90;;;3.60;;
47796;SDS011;33558;50.922;14.068;2022-08-01T08:48:21;5.07;;;4.18;;
47796;SDS011;33558;50.922;14.068;2022-08-01T08:50:48;3.97;;;3.67;;
47796;SDS011;33558;50.922;14.068;2022-08-01T08:53:15;3.53;;;3.28;;
47796;SDS011;33558;50.922;14.068;2022-08-01T08:55:42;3.25;;;2.83;;
47796;SDS011;33558;50.922;14.068;2022-08-01T08:58:10;2.70;;;2.50;;
47796;SDS011;33558;50.922;14.068;2022-08-01T09:00:38;3.33;;;2.85;;
47796;SDS011;33558;50.922;14.068;2022-08-01T09:03:04;3.38;;;2.67;;
47796;SDS011;33558;50.922;14.068;2022-08-01T09:05:32;2.55;;;2.28;;
47796;SDS011;33558;50.922;14.068;2022-08-01T09:07:59;2.72;;;2.13;;
47796;SDS011;33558;50.922;14.068;2022-08-01T09:10:26;2.40;;;2.20;;
47796;SDS011;33558;50.922;14.068;2022-08-01T09:13:01;2.90;;;2.15;;
47796;SDS011;33558;50.922;14.068;2022-08-01T09:15:37;2.35;;;1.88;;
47796;SDS011;33558;50.922;14.068;2022-08-01T09:18:04;1.75;;;1.58;;
47796;SDS011;33558;50.922;14.068;2022-08-01T09:20:32;2.35;;;2.08;;
47796;SDS011;33558;50.922;14.068;2022-08-01T09:23:00;2.42;;;1.90;;
47796;SDS011;33558;50.922;14.068;2022-08-01T09:25:27;2.40;;;1.85;;
47796;SDS011;33558;50.922;14.068;2022-08-01T09:28:01;1.90;;;1.80;;
47796;SDS011;33558;50.922;14.068;2022-08-01T09:30:32;2.92;;;1.90;;
47796;SDS011;33558;50.922;14.068;2022-08-01T09:33:03;3.22;;;1.77;;
47796;SDS011;33558;50.922;14.068;2022-08-01T09:35:31;2.30;;;1.80;;
47796;SDS011;33558;50.922;14.068;2022-08-01T09:38:11;2.20;;;1.48;;
47796;SDS011;33558;50.922;14.068;2022-08-01T09:40:43;2.78;;;1.60;;
47796;SDS011;33558;50.922;14.068;2022-08-01T09:43:11;2.25;;;1.80;;
47796;SDS011;33558;50.922;14.068;2022-08-01T09:45:38;1.77;;;1.63;;
47796;SDS011;33558;50.922;14.068;2022-08-01T09:48:05;4.80;;;1.60;;
47796;SDS011;33558;50.922;14.068;2022-08-01T09:50:39;3.42;;;1.33;;
47796;SDS011;33558;50.922;14.068;2022-08-01T09:53:06;3.15;;;1.65;;
47796;SDS011;33558;50.922;14.068;2022-08-01T09:55:33;2.25;;;1.33;;
47796;SDS011;33558;50.922;14.068;2022-08-01T09:58:00;3.85;;;1.40;;
47796;SDS011;33558;50.922;14.068;2022-08-01T10:00:29;2.72;;;1.25;;
47796;SDS011;33558;50.922;14.068;2022-08-01T10:02:56;1.50;;;1.20;;
47796;SDS011;33558;50.922;14.068;2022-08-01T10:05:29;1.77;;;1.30;;
47796;SDS011;33558;50.922;14.068;2022-08-01T10:07:58;2.50;;;1.45;;
47796;SDS011;33558;50.922;14.068;2022-08-01T10:10:26;3.30;;;1.30;;
47796;SDS011;33558;50.922;14.068;2022-08-01T10:12:53;4.32;;;1.20;;
47796;SDS011;33558;50.922;14.068;2022-08-01T10:15:21;1.30;;;1.20;;
47796;SDS011;33558;50.922;14.068;2022-08-01T10:17:51;1.05;;;0.88;;
47796;SDS011;33558;50.922;14.068;2022-08-01T10:20:20;1.23;;;0.95;;
47796;SDS011;33558;50.922;14.068;2022-08-01T10:22:47;1.13;;;1.02;;
47796;SDS011;33558;50.922;14.068;2022-08-01T10:25:17;1.30;;;1.17;;
47796;SDS011;33558;50.922;14.068;2022-08-01T10:27:44;1.35;;;1.10;;
47796;SDS011;33558;50.922;14.068;2022-08-01T10:30:12;1.67;;;1.40;;
47796;SDS011;33558;50.922;14.068;2022-08-01T10:32:39;2.38;;;1.40;;
47796;SDS011;33558;50.922;14.068;2022-08-01T10:35:08;1.13;;;1.00;;
47796;SDS011;33558;50.922;14.068;2022-08-01T10:37:39;1.15;;;1.00;;
47796;SDS011;33558;50.922;14.068;2022-08-01T10:40:07;1.40;;;1.30;;
47796;SDS011;33558;50.922;14.068;2022-08-01T10:42:36;2.65;;;1.38;;
47796;SDS011;33558;50.922;14.068;2022-08-01T10:45:03;1.27;;;1.17;;
47796;SDS011;33558;50.922;14.068;2022-08-01T10:47:33;1.27;;;1.00;;
47796;SDS011;33558;50.922;14.068;2022-08-01T10:50:04;1.30;;;1.15;;
47796;SDS011;33558;50.922;14.068;2022-08-01T10:52:34;1.65;;;1.13;;
47796;SDS011;33558;50.922;14.068;2022-08-01T10:55:03;1.67;;;1.30;;
47796;SDS011;33558;50.922;14.068;2022-08-01T10:57:44;3.35;;;1.17;;
47796;SDS011;33558;50.922;14.068;2022-08-01T11:00:16;2.15;;;1.15;;
47796;SDS011;33558;50.922;14.068;2022-08-01T11:02:44;1.42;;;1.33;;
47796;SDS011;33558;50.922;14.068;2022-08-01T11:05:25;2.40;;;1.10;;
47796;SDS011;33558;50.922;14.068;2022-08-01T11:07:54;1.30;;;1.20;;
47796;SDS011;33558;50.922;14.068;2022-08-01T11:10:22;2.00;;;1.38;;
47796;SDS011;33558;50.922;14.068;2022-08-01T11:12:52;1.50;;;1.00;;
47796;SDS011;33558;50.922;14.068;2022-08-01T11:15:20;1.00;;;0.88;;
47796;SDS011;33558;50.922;14.068;2022-08-01T11:17:56;2.35;;;0.90;;
47796;SDS011;33558;50.922;14.068;2022-08-01T11:20:24;1.25;;;0.98;;
47796;SDS011;33558;50.922;14.068;2022-08-01T11:31:44;1.30;;;1.00;;
47796;SDS011;33558;50.922;14.068;2022-08-01T11:34:11;0.93;;;0.88;;
47796;SDS011;33558;50.922;14.068;2022-08-01T11:36:38;2.17;;;0.73;;
47796;SDS011;33558;50.922;14.068;2022-08-01T11:39:15;1.20;;;0.68;;
47796;SDS011;33558;50.922;14.068;2022-08-01T11:41:43;0.95;;;0.70;;
47796;SDS011;33558;50.922;14.068;2022-08-01T11:44:11;1.60;;;0.40;;
47796;SDS011;33558;50.922;14.068;2022-08-01T11:52:27;1.65;;;0.50;;
47796;SDS011;33558;50.922;14.068;2022-08-01T11:54:55;2.53;;;0.43;;
47796;SDS011;33558;50.922;14.068;2022-08-01T11:57:23;0.40;;;0.40;;
47796;SDS011;33558;50.922;14.068;2022-08-01T11:59:51;1.00;;;0.40;;
47796;SDS011;33558;50.922;14.068;2022-08-01T12:02:20;1.30;;;0.47;;
47796;SDS011;33558;50.922;14.068;2022-08-01T12:04:49;1.95;;;0.30;;
47796;SDS011;33558;50.922;14.068;2022-08-01T12:07:17;0.65;;;0.40;;
47796;SDS011;33558;50.922;14.068;2022-08-01T12:09:44;2.30;;;0.40;;
47796;SDS011;33558;50.922;14.068;2022-08-01T12:12:14;0.93;;;0.50;;
47796;SDS011;33558;50.922;14.068;2022-08-01T12:14:43;3.42;;;0.40;;
47796;SDS011;33558;50.922;14.068;2022-08-01T12:17:09;0.90;;;0.50;;
47796;SDS011;33558;50.922;14.068;2022-08-01T12:19:37;2.15;;;0.40;;
47796;SDS011;33558;50.922;14.068;2022-08-01T12:22:06;1.02;;;0.40;;
47796;SDS011;33558;50.922;14.068;2022-08-01T12:24:34;1.30;;;0.50;;
47796;SDS011;33558;50.922;14.068;2022-08-01T12:27:01;2.83;;;0.90;;
47796;SDS011;33558;50.922;14.068;2022-08-01T12:29:32;0.70;;;0.50;;
47796;SDS011;33558;50.922;14.068;2022-08-01T12:32:03;1.75;;;0.50;;
47796;SDS011;33558;50.922;14.068;2022-08-01T12:34:30;1.75;;;0.40;;
47796;SDS011;33558;50.922;14.068;2022-08-01T12:37:00;1.40;;;0.57;;
47796;SDS011;33558;50.922;14.068;2022-08-01T12:39:29;5.53;;;1.15;;
47796;SDS011;33558;50.922;14.068;2022-08-01T12:41:56;3.03;;;1.00;;
47796;SDS011;33558;50.922;14.068;2022-08-01T12:44:23;3.33;;;1.00;;
47796;SDS011;33558;50.922;14.068;2022-08-01T12:46:50;2.90;;;1.30;;
47796;SDS011;33558;50.922;14.068;2022-08-01T12:49:17;4.03;;;1.10;;
47796;SDS011;33558;50.922;14.068;2022-08-01T12:51:44;4.38;;;1.10;;
47796;SDS011;33558;50.922;14.068;2022-08-01T12:54:12;3.70;;;1.13;;
47796;SDS011;33558;50.922;14.068;2022-08-01T12:56:39;5.05;;;1.17;;
47796;SDS011;33558;50.922;14.068;2022-08-01T12:59:18;3.03;;;1.10;;
47796;SDS011;33558;50.922;14.068;2022-08-01T13:01:46;2.10;;;0.70;;
47796;SDS011;33558;50.922;14.068;2022-08-01T13:04:12;2.60;;;0.63;;
47796;SDS011;33558;50.922;14.068;2022-08-01T13:06:39;3.53;;;0.70;;
47796;SDS011;33558;50.922;14.068;2022-08-01T13:09:06;1.08;;;0.60;;
47796;SDS011;33558;50.922;14.068;2022-08-01T13:11:35;2.42;;;0.50;;
47796;SDS011;33558;50.922;14.068;2022-08-01T13:14:01;2.53;;;0.50;;
47796;SDS011;33558;50.922;14.068;2022-08-01T13:16:28;1.33;;;0.50;;
47796;SDS011;33558;50.922;14.068;2022-08-01T13:18:55;2.72;;;0.50;;
47796;SDS011;33558;50.922;14.068;2022-08-01T13:21:23;2.15;;;0.68;;
47796;SDS011;33558;50.922;14.068;2022-08-01T13:24:01;2.72;;;0.95;;
47796;SDS011;33558;50.922;14.068;2022-08-01T13:26:43;1.45;;;0.47;;
47796;SDS011;33558;50.922;14.068;2022-08-01T13:29:11;3.90;;;0.77;;
47796;SDS011;33558;50.922;14.068;2022-08-01T13:31:38;2.72;;;0.60;;
47796;SDS011;33558;50.922;14.068;2022-08-01T13:34:05;2.50;;;0.60;;
47796;SDS011;33558;50.922;14.068;2022-08-01T13:36:32;1.40;;;0.40;;
47796;SDS011;33558;50.922;14.068;2022-08-01T13:39:00;1.95;;;0.70;;
47796;SDS011;33558;50.922;14.068;2022-08-01T13:41:46;0.82;;;0.50;;
47796;SDS011;33558;50.922;14.068;2022-08-01T13:44:13;3.63;;;0.60;;
47796;SDS011;33558;50.922;14.068;2022-08-01T13:46:40;1.63;;;0.43;;
47796;SDS011;33558;50.922;14.068;2022-08-01T13:49:08;2.38;;;0.65;;
47796;SDS011;33558;50.922;14.068;2022-08-01T13:51:35;1.58;;;0.40;;
47796;SDS011;33558;50.922;14.068;2022-08-01T13:54:02;1.58;;;0.60;;
47796;SDS011;33558;50.922;14.068;2022-08-01T13:56:30;5.55;;;0.70;;
47796;SDS011;33558;50.922;14.068;2022-08-01T13:58:58;3.55;;;0.70;;
47796;SDS011;33558;50.922;14.068;2022-08-01T14:01:25;2.33;;;0.68;;
47796;SDS011;33558;50.922;14.068;2022-08-01T14:03:51;1.70;;;0.40;;
47796;SDS011;33558;50.922;14.068;2022-08-01T14:06:18;2.83;;;0.40;;
47796;SDS011;33558;50.922;14.068;2022-08-01T14:08:47;1.70;;;0.40;;
47796;SDS011;33558;50.922;14.068;2022-08-01T14:11:14;0.70;;;0.47;;
47796;SDS011;33558;50.922;14.068;2022-08-01T14:13:40;1.90;;;0.40;;
47796;SDS011;33558;50.922;14.068;2022-08-01T14:16:08;1.60;;;0.40;;
47796;SDS011;33558;50.922;14.068;2022-08-01T14:18:35;0.47;;;0.30;;
47796;SDS011;33558;50.922;14.068;2022-08-01T14:21:02;1.35;;;0.30;;
47796;SDS011;33558;50.922;14.068;2022-08-01T14:23:28;2.95;;;0.40;;
47796;SDS011;33558;50.922;14.068;2022-08-01T14:25:55;2.33;;;0.30;;
47796;SDS011;33558;50.922;14.068;2022-08-01T14:28:22;2.50;;;0.40;;
47796;SDS011;33558;50.922;14.068;2022-08-01T14:30:49;1.38;;;0.30;;
47796;SDS011;33558;50.922;14.068;2022-08-01T14:33:17;6.18;;;0.50;;
47796;SDS011;33558;50.922;14.068;2022-08-01T14:35:44;3.92;;;0.45;;
47796;SDS011;33558;50.922;14.068;2022-08-01T14:38:10;2.55;;;0.50;;
47796;SDS011;33558;50.922;14.068;2022-08-01T14:40:37;1.80;;;0.40;;
47796;SDS011;33558;50.922;14.068;2022-08-01T14:43:03;1.75;;;0.40;;
47796;SDS011;33558;50.922;14.068;2022-08-01T14:45:30;0.65;;;0.30;;
47796;SDS011;33558;50.922;14.068;2022-08-01T14:47:57;0.65;;;0.40;;
47796;SDS011;33558;50.922;14.068;2022-08-01T14:50:26;1.30;;;0.52;;
47796;SDS011;33558;50.922;14.068;2022-08-01T14:52:53;3.80;;;0.52;;
47796;SDS011;33558;50.922;14.068;2022-08-01T14:55:19;2.67;;;0.50;;